Time;durP1;ratioP1;P1;durP2;ratioP2;P2;SDS_P1;SDS_P2;PMS_P1;PMS_P2;Temp;Humidity;BMP_temperature;BMP_pressure;BME280_temperature;BME280_humidity;BME280_pressure;Samples;Min_cycle;Max_cycle;Signal;HPM_P1;HPM_P2
2021/10/29 12:54:06;;;;;;;4.60;3.70;;;;;;;;;;4964578;28;20414;-80
2021/10/29 12:59:28;;;;;;;4.30;3.80;;;;;;;;;;4968409;28;20777;-79
2021/10/29 13:01:56;;;;;;;4.00;3.60;;;;;;;;;;4966579;28;20519;-80
2021/10/29 13:04:36;;;;;;;4.73;3.80;;;;;;;;;;4965710;28;20599;-78
2021/10/29 13:07:06;;;;;;;8.07;4.30;;;;;;;;;;4951114;28;21043;-79
2021/10/29 13:09:35;;;;;;;4.40;3.77;;;;;;;;;;4957351;28;20536;-78
2021/10/29 13:12:09;;;;;;;7.73;4.50;;;;;;;;;;4960646;28;20473;-79
2021/10/29 13:14:38;;;;;;;6.57;4.10;;;;;;;;;;4961121;28;20429;-78
2021/10/29 13:17:07;;;;;;;4.63;3.80;;;;;;;;;;4970194;28;21030;-79
2021/10/29 13:19:48;;;;;;;5.97;4.00;;;;;;;;;;4968777;28;20479;-80
2021/10/29 13:25:14;;;;;;;5.30;4.20;;;;;;;;;;4944183;28;20441;-78
2021/10/29 13:27:58;;;;;;;4.80;4.23;;;;;;;;;;4955448;28;20457;-79
2021/10/29 13:36:03;;;;;;;7.30;4.10;;;;;;;;;;4969343;28;20460;-83
2021/10/29 13:52:14;;;;;;;4.23;3.40;;;;;;;;;;4969396;28;20473;-77
2021/10/29 13:54:50;;;;;;;6.20;3.70;;;;;;;;;;4972855;28;20699;-78
2021/10/29 13:57:36;;;;;;;6.00;3.43;;;;;;;;;;4959442;28;20481;-79
2021/10/29 14:03:01;;;;;;;5.17;3.77;;;;;;;;;;4963298;28;20475;-79
2021/10/29 14:24:34;;;;;;;5.20;3.77;;;;;;;;;;4958650;28;20484;-83
2021/10/29 14:29:46;;;;;;;8.80;3.93;;;;;;;;;;4957540;28;20453;-83
2021/10/29 14:32:17;;;;;;;4.17;3.50;;;;;;;;;;4957634;28;20462;-83
2021/10/29 14:34:49;;;;;;;4.43;3.43;;;;;;;;;;4974784;28;20415;-79
2021/10/29 14:37:19;;;;;;;3.87;3.47;;;;;;;;;;4955973;29;20585;-80
2021/10/29 14:39:54;;;;;;;7.03;3.50;;;;;;;;;;4956927;28;20517;-76
2021/10/29 14:42:30;;;;;;;4.33;3.70;;;;;;;;;;4955811;28;20467;-76
2021/10/29 14:45:02;;;;;;;5.57;3.33;;;;;;;;;;4957148;28;20423;-84
2021/10/29 14:47:43;;;;;;;4.50;3.00;;;;;;;;;;4961628;28;20482;-83
2021/10/29 14:50:25;;;;;;;5.17;3.20;;;;;;;;;;4973087;28;20487;-81
2021/10/29 14:53:07;;;;;;;3.40;3.10;;;;;;;;;;4967971;28;20471;-81
2021/10/29 15:01:25;;;;;;;5.33;3.57;;;;;;;;;;4964231;28;20460;-82
2021/10/29 15:04:05;;;;;;;4.83;2.90;;;;;;;;;;4954500;29;20518;-80
2021/10/29 15:17:29;;;;;;;4.40;3.47;;;;;;;;;;4971696;28;20970;-80
2021/10/29 15:25:28;;;;;;;5.20;3.83;;;;;;;;;;4960076;28;20473;-80
2021/10/29 15:28:09;;;;;;;5.07;3.17;;;;;;;;;;4964646;28;20443;-80
2021/10/29 15:30:42;;;;;;;4.93;3.20;;;;;;;;;;4958166;28;20487;-79
2021/10/29 15:33:28;;;;;;;5.87;4.10;;;;;;;;;;4970091;28;20440;-81
2021/10/29 15:41:33;;;;;;;5.20;3.33;;;;;;;;;;4969857;28;20437;-80
2021/10/29 15:44:12;;;;;;;3.00;2.70;;;;;;;;;;4954664;28;20848;-78
2021/10/29 15:46:45;;;;;;;4.10;3.10;;;;;;;;;;4957580;28;21050;-79
2021/10/29 15:51:56;;;;;;;3.90;3.23;;;;;;;;;;4967166;28;20963;-79
2021/10/29 15:54:24;;;;;;;5.63;3.40;;;;;;;;;;4964894;28;20452;-79
2021/10/29 15:56:54;;;;;;;5.13;3.50;;;;;;;;;;4957600;28;20588;-78
2021/10/29 15:59:31;;;;;;;4.60;3.43;;;;;;;;;;4958939;28;20485;-79
2021/10/29 16:02:10;;;;;;;5.80;3.20;;;;;;;;;;4965311;28;20528;-79
2021/10/29 16:18:04;;;;;;;5.43;4.00;;;;;;;;;;4958385;28;20484;-81
2021/10/29 16:20:31;;;;;;;4.77;4.03;;;;;;;;;;4959712;28;20476;-80
2021/10/29 16:23:01;;;;;;;5.13;3.87;;;;;;;;;;4940194;28;20459;-79
2021/10/29 16:25:32;;;;;;;4.60;3.50;;;;;;;;;;4951587;29;20425;-79
2021/10/29 16:28:01;;;;;;;6.17;3.60;;;;;;;;;;4965211;28;20452;-78
2021/10/29 16:30:30;;;;;;;4.60;4.17;;;;;;;;;;4954726;28;20500;-79
2021/10/29 16:33:08;;;;;;;3.67;3.33;;;;;;;;;;4969869;28;20461;-80
2021/10/29 16:35:38;;;;;;;4.03;3.63;;;;;;;;;;4970215;28;20445;-80
2021/10/29 16:38:09;;;;;;;4.90;3.60;;;;;;;;;;4956480;28;20582;-80
2021/10/29 16:40:36;;;;;;;5.40;3.90;;;;;;;;;;4960626;28;20481;-77
2021/10/29 16:43:05;;;;;;;5.30;4.20;;;;;;;;;;4952056;28;20836;-80
2021/10/29 16:45:32;;;;;;;6.20;4.60;;;;;;;;;;4971031;28;20444;-80
2021/10/29 16:48:00;;;;;;;5.50;4.23;;;;;;;;;;4968951;28;20475;-79
2021/10/29 16:50:27;;;;;;;6.90;4.80;;;;;;;;;;4953911;28;20512;-80
2021/10/29 16:52:55;;;;;;;4.90;4.30;;;;;;;;;;4966564;28;20969;-77
2021/10/29 16:55:23;;;;;;;6.80;4.83;;;;;;;;;;4966427;28;20453;-79
2021/10/29 16:57:50;;;;;;;5.40;4.70;;;;;;;;;;4963513;28;20860;-79
2021/10/29 17:00:17;;;;;;;4.80;4.30;;;;;;;;;;4957199;28;20735;-79
2021/10/29 17:02:45;;;;;;;5.30;3.83;;;;;;;;;;4960327;28;20463;-79
2021/10/29 17:05:13;;;;;;;6.23;4.50;;;;;;;;;;4970868;28;20546;-78
2021/10/29 17:07:40;;;;;;;6.17;4.50;;;;;;;;;;4966552;28;20476;-83
2021/10/29 17:10:11;;;;;;;7.20;4.27;;;;;;;;;;4939271;28;20485;-81
2021/10/29 17:12:39;;;;;;;7.00;5.40;;;;;;;;;;4970444;28;20949;-84
2021/10/29 17:15:07;;;;;;;6.63;4.60;;;;;;;;;;4961854;28;20792;-79
2021/10/29 17:17:34;;;;;;;5.40;4.87;;;;;;;;;;4955987;28;20989;-79
2021/10/29 17:20:01;;;;;;;6.37;5.50;;;;;;;;;;4959271;28;20492;-83
2021/10/29 17:22:29;;;;;;;6.47;4.17;;;;;;;;;;4951007;29;20477;-79
2021/10/29 17:24:56;;;;;;;4.83;4.20;;;;;;;;;;4957362;28;20460;-82
2021/10/29 17:27:24;;;;;;;6.60;4.60;;;;;;;;;;4969241;28;20464;-80
2021/10/29 17:29:51;;;;;;;6.73;4.90;;;;;;;;;;4971215;28;20464;-81
2021/10/29 17:32:19;;;;;;;7.27;4.73;;;;;;;;;;4970597;28;20452;-80
2021/10/29 17:34:47;;;;;;;5.93;4.00;;;;;;;;;;4970854;28;20547;-78
2021/10/29 17:37:16;;;;;;;6.27;4.80;;;;;;;;;;4962022;28;20476;-77
2021/10/29 17:39:44;;;;;;;6.33;4.40;;;;;;;;;;4957038;28;20477;-82
2021/10/29 17:42:12;;;;;;;5.80;4.57;;;;;;;;;;4969654;28;20473;-79
2021/10/29 17:44:40;;;;;;;5.77;4.80;;;;;;;;;;4969572;28;20872;-79
2021/10/29 17:47:08;;;;;;;6.53;5.10;;;;;;;;;;4943738;28;20469;-82
2021/10/29 17:49:37;;;;;;;5.67;4.70;;;;;;;;;;4970742;28;20965;-77
2021/10/29 17:52:05;;;;;;;6.50;4.53;;;;;;;;;;4969337;28;20499;-80
2021/10/29 17:54:36;;;;;;;9.23;5.23;;;;;;;;;;4964250;28;20521;-82
2021/10/29 17:57:05;;;;;;;7.07;5.07;;;;;;;;;;4963332;28;20556;-80
2021/10/29 17:59:34;;;;;;;5.37;4.87;;;;;;;;;;4954252;28;20480;-78
2021/10/29 18:02:03;;;;;;;4.70;4.20;;;;;;;;;;4939313;28;20459;-80
2021/10/29 18:04:30;;;;;;;6.00;4.50;;;;;;;;;;4969673;28;20445;-80
2021/10/29 18:06:59;;;;;;;10.30;5.00;;;;;;;;;;4963881;28;20465;-81
2021/10/29 18:09:26;;;;;;;6.67;5.83;;;;;;;;;;4956307;28;20554;-80
2021/10/29 18:11:53;;;;;;;7.90;4.67;;;;;;;;;;4965071;28;20466;-81
2021/10/29 18:14:23;;;;;;;7.83;5.57;;;;;;;;;;4971351;28;20458;-82
2021/10/29 18:16:51;;;;;;;6.17;5.20;;;;;;;;;;4964587;28;20812;-81
2021/10/29 18:19:20;;;;;;;6.10;4.87;;;;;;;;;;4956827;28;20468;-79
2021/10/29 18:21:48;;;;;;;7.43;5.20;;;;;;;;;;4955124;28;20467;-80
2021/10/29 18:24:16;;;;;;;5.67;4.93;;;;;;;;;;4950116;28;20464;-79
2021/10/29 18:26:46;;;;;;;6.60;4.70;;;;;;;;;;4963239;28;20551;-79
2021/10/29 18:29:13;;;;;;;8.63;5.20;;;;;;;;;;4944097;28;20466;-80
2021/10/29 18:31:41;;;;;;;5.70;4.60;;;;;;;;;;4973295;28;20566;-79
2021/10/29 18:34:09;;;;;;;7.33;5.40;;;;;;;;;;4965090;28;20479;-80
2021/10/29 18:36:37;;;;;;;10.83;5.10;;;;;;;;;;4959148;28;20449;-80
2021/10/29 18:39:05;;;;;;;7.10;5.80;;;;;;;;;;4942523;28;20827;-79
2021/10/29 18:41:33;;;;;;;5.50;4.70;;;;;;;;;;4970690;28;20475;-80
2021/10/29 18:44:00;;;;;;;6.00;5.37;;;;;;;;;;4968961;28;20925;-78
2021/10/29 18:46:28;;;;;;;6.27;5.67;;;;;;;;;;4952045;28;20445;-79
2021/10/29 18:48:56;;;;;;;6.97;4.77;;;;;;;;;;4934797;28;21029;-79
2021/10/29 18:51:23;;;;;;;7.40;5.97;;;;;;;;;;4954536;28;20500;-78
2021/10/29 18:53:52;;;;;;;6.30;5.00;;;;;;;;;;4963434;28;20539;-81
2021/10/29 18:56:20;;;;;;;7.63;5.20;;;;;;;;;;4959946;28;20486;-77
2021/10/29 18:58:48;;;;;;;6.10;5.00;;;;;;;;;;4965496;28;20488;-80
2021/10/29 19:01:15;;;;;;;6.53;5.73;;;;;;;;;;4953989;28;20539;-80
2021/10/29 19:03:42;;;;;;;7.70;5.20;;;;;;;;;;4963413;28;20464;-80
2021/10/29 19:06:15;;;;;;;7.87;5.90;;;;;;;;;;4955839;28;20445;-79
2021/10/29 19:08:43;;;;;;;6.83;4.90;;;;;;;;;;4965795;28;20938;-78
2021/10/29 19:11:12;;;;;;;7.60;5.80;;;;;;;;;;4969076;28;20539;-78
2021/10/29 19:13:40;;;;;;;6.83;5.53;;;;;;;;;;4964544;28;20659;-79
2021/10/29 19:16:08;;;;;;;7.67;5.77;;;;;;;;;;4959619;28;20496;-79
2021/10/29 19:18:35;;;;;;;6.60;5.13;;;;;;;;;;4955583;28;20493;-80
2021/10/29 19:21:04;;;;;;;6.10;4.90;;;;;;;;;;4953602;28;20467;-81
2021/10/29 19:23:32;;;;;;;6.43;4.90;;;;;;;;;;4959351;28;20464;-78
2021/10/29 19:25:59;;;;;;;5.43;4.37;;;;;;;;;;4969184;28;20456;-78
2021/10/29 19:28:28;;;;;;;6.93;5.00;;;;;;;;;;4951963;28;20889;-78
2021/10/29 19:30:55;;;;;;;7.27;5.60;;;;;;;;;;4953716;28;20464;-79
2021/10/29 19:33:23;;;;;;;8.37;5.93;;;;;;;;;;4962219;28;20523;-78
2021/10/29 19:35:56;;;;;;;8.10;5.73;;;;;;;;;;4955634;28;20465;-79
2021/10/29 19:38:25;;;;;;;7.90;5.50;;;;;;;;;;4960291;28;20927;-78
2021/10/29 19:40:54;;;;;;;9.30;5.30;;;;;;;;;;4965948;28;20458;-79
2021/10/29 19:43:22;;;;;;;7.37;5.73;;;;;;;;;;4955524;28;20460;-79
2021/10/29 19:45:51;;;;;;;10.90;6.00;;;;;;;;;;4951728;28;20797;-77
2021/10/29 19:48:19;;;;;;;7.07;5.03;;;;;;;;;;4949947;28;20961;-78
2021/10/29 19:50:49;;;;;;;6.00;5.37;;;;;;;;;;4953275;28;20575;-77
2021/10/29 19:53:26;;;;;;;6.33;5.23;;;;;;;;;;4972998;28;20763;-79
2021/10/29 19:56:04;;;;;;;7.67;5.30;;;;;;;;;;4968718;28;20906;-79
2021/10/29 19:58:31;;;;;;;7.70;5.10;;;;;;;;;;4962719;28;21060;-80
2021/10/29 20:01:06;;;;;;;6.30;4.80;;;;;;;;;;4970200;28;20440;-78
2021/10/29 20:03:33;;;;;;;6.40;5.43;;;;;;;;;;4952872;28;20496;-79
2021/10/29 20:06:01;;;;;;;7.80;5.57;;;;;;;;;;4949264;28;20480;-79
2021/10/29 20:08:29;;;;;;;7.17;5.40;;;;;;;;;;4960495;28;20846;-79
2021/10/29 20:10:56;;;;;;;10.67;5.50;;;;;;;;;;4963418;28;20459;-79
2021/10/29 20:13:23;;;;;;;5.60;4.90;;;;;;;;;;4960667;28;20820;-78
2021/10/29 20:15:55;;;;;;;6.83;5.80;;;;;;;;;;4947153;28;20476;-78
2021/10/29 20:18:25;;;;;;;5.80;5.13;;;;;;;;;;4968783;28;20498;-77
2021/10/29 20:20:52;;;;;;;6.30;5.40;;;;;;;;;;4959462;28;20995;-80
2021/10/29 20:23:20;;;;;;;6.20;5.60;;;;;;;;;;4956301;28;20460;-82
2021/10/29 20:25:47;;;;;;;7.37;4.90;;;;;;;;;;4955018;28;20456;-77
2021/10/29 20:28:14;;;;;;;6.60;4.90;;;;;;;;;;4951814;28;20454;-77
2021/10/29 20:30:42;;;;;;;5.87;5.10;;;;;;;;;;4955176;28;20481;-77
2021/10/29 20:33:10;;;;;;;8.10;5.63;;;;;;;;;;4965986;28;20465;-80
2021/10/29 20:35:39;;;;;;;8.60;5.70;;;;;;;;;;4969555;28;20457;-79
2021/10/29 20:38:06;;;;;;;6.90;5.50;;;;;;;;;;4956836;28;20481;-80
2021/10/29 20:40:33;;;;;;;10.73;5.67;;;;;;;;;;4962669;28;20470;-79
2021/10/29 20:43:00;;;;;;;7.60;6.80;;;;;;;;;;4969162;28;20452;-78
2021/10/29 20:45:30;;;;;;;7.23;5.60;;;;;;;;;;4970262;28;20526;-79
2021/10/29 20:47:57;;;;;;;9.10;5.30;;;;;;;;;;4960690;28;20461;-78
2021/10/29 20:50:54;;;;;;;7.70;6.83;;;;;;;;;;4956896;28;20528;-81
2021/10/29 20:53:22;;;;;;;9.90;6.07;;;;;;;;;;4968770;28;20467;-79
2021/10/29 20:55:50;;;;;;;7.73;5.97;;;;;;;;;;4972945;28;20514;-79
2021/10/29 20:58:17;;;;;;;8.33;6.70;;;;;;;;;;4966786;28;20484;-79
2021/10/29 21:00:44;;;;;;;11.20;7.20;;;;;;;;;;4957141;28;20826;-78
2021/10/29 21:03:11;;;;;;;8.63;6.93;;;;;;;;;;4954783;28;20461;-78
2021/10/29 21:05:41;;;;;;;8.53;6.70;;;;;;;;;;4969714;28;20774;-78
2021/10/29 21:08:08;;;;;;;7.37;6.10;;;;;;;;;;4964043;28;20456;-79
2021/10/29 21:10:37;;;;;;;8.67;6.73;;;;;;;;;;4954688;28;20503;-78
2021/10/29 21:13:05;;;;;;;10.20;6.20;;;;;;;;;;4961927;28;21219;-78
2021/10/29 21:15:32;;;;;;;7.50;6.50;;;;;;;;;;4954694;28;20472;-80
2021/10/29 21:17:59;;;;;;;7.53;6.73;;;;;;;;;;4956523;28;20485;-78
2021/10/29 21:20:27;;;;;;;9.40;7.00;;;;;;;;;;4949783;28;20485;-79
2021/10/29 21:22:54;;;;;;;9.23;6.77;;;;;;;;;;4969830;28;20813;-79
2021/10/29 21:25:21;;;;;;;8.67;6.93;;;;;;;;;;4970061;28;20433;-79
2021/10/29 21:27:51;;;;;;;10.60;6.80;;;;;;;;;;4968310;28;20825;-80
2021/10/29 21:30:18;;;;;;;9.57;7.17;;;;;;;;;;4955844;28;20475;-79
2021/10/29 21:32:46;;;;;;;8.03;6.97;;;;;;;;;;4956261;28;20466;-79
2021/10/29 21:35:13;;;;;;;9.07;6.70;;;;;;;;;;4965459;28;20465;-79
2021/10/29 21:37:41;;;;;;;7.07;6.17;;;;;;;;;;4969801;28;20786;-80
2021/10/29 21:40:09;;;;;;;8.50;7.10;;;;;;;;;;4968634;28;20498;-80
2021/10/29 21:42:36;;;;;;;8.20;6.83;;;;;;;;;;4970674;28;20445;-79
2021/10/29 21:45:05;;;;;;;11.00;7.57;;;;;;;;;;4956908;28;20465;-80
2021/10/29 21:47:32;;;;;;;9.23;6.47;;;;;;;;;;4972191;28;20808;-80
2021/10/29 21:50:00;;;;;;;8.50;7.40;;;;;;;;;;4970545;28;20477;-79
2021/10/29 21:52:28;;;;;;;10.40;8.00;;;;;;;;;;4953914;28;20517;-79
2021/10/29 21:54:55;;;;;;;10.43;7.80;;;;;;;;;;4953972;28;20454;-80
2021/10/29 21:57:25;;;;;;;7.67;6.70;;;;;;;;;;4950233;29;20777;-79
2021/10/29 21:59:54;;;;;;;9.40;7.60;;;;;;;;;;4951215;28;20495;-80
2021/10/29 22:02:23;;;;;;;9.07;7.93;;;;;;;;;;4951872;28;20454;-80
2021/10/29 22:04:51;;;;;;;10.93;7.53;;;;;;;;;;4955549;28;20454;-79
2021/10/29 22:07:18;;;;;;;10.27;8.20;;;;;;;;;;4971316;28;20460;-79
2021/10/29 22:09:45;;;;;;;10.17;8.00;;;;;;;;;;4969559;28;21161;-79
2021/10/29 22:12:12;;;;;;;12.00;9.10;;;;;;;;;;4969301;28;20456;-80
2021/10/29 22:14:41;;;;;;;9.20;7.73;;;;;;;;;;4965383;28;20457;-78
2021/10/29 22:17:11;;;;;;;9.10;8.20;;;;;;;;;;4962052;28;20464;-80
2021/10/29 22:19:40;;;;;;;13.50;8.17;;;;;;;;;;4970758;28;20484;-79
2021/10/29 22:22:09;;;;;;;15.20;8.03;;;;;;;;;;4967346;28;20813;-78
2021/10/29 22:24:37;;;;;;;8.73;7.63;;;;;;;;;;4967003;28;20850;-79
2021/10/29 22:27:08;;;;;;;10.00;7.63;;;;;;;;;;4975571;28;20440;-80
2021/10/29 22:29:44;;;;;;;10.70;7.97;;;;;;;;;;4971904;28;20492;-80
2021/10/29 22:32:12;;;;;;;9.77;7.60;;;;;;;;;;4962999;28;20809;-80
2021/10/29 22:34:43;;;;;;;11.77;8.40;;;;;;;;;;4966366;28;20421;-81
2021/10/29 22:37:18;;;;;;;10.27;7.50;;;;;;;;;;4975496;28;20460;-80
2021/10/29 22:39:46;;;;;;;8.90;7.60;;;;;;;;;;4975796;28;20591;-80
2021/10/29 22:42:14;;;;;;;11.37;7.57;;;;;;;;;;4961878;28;20469;-78
2021/10/29 22:44:41;;;;;;;8.83;6.97;;;;;;;;;;4973750;28;20942;-80
2021/10/29 22:47:08;;;;;;;12.97;8.63;;;;;;;;;;4964620;28;20448;-79
2021/10/29 22:49:36;;;;;;;11.03;8.20;;;;;;;;;;4960336;28;20488;-82
2021/10/29 22:52:04;;;;;;;11.37;8.27;;;;;;;;;;4955752;29;20943;-78
2021/10/29 22:54:32;;;;;;;11.03;7.63;;;;;;;;;;4964038;28;20461;-80
2021/10/29 22:56:59;;;;;;;10.63;7.57;;;;;;;;;;4975831;28;20538;-80
2021/10/29 22:59:26;;;;;;;9.40;7.50;;;;;;;;;;4971164;28;20999;-79
2021/10/29 23:01:54;;;;;;;11.00;8.13;;;;;;;;;;4974117;28;20479;-81
2021/10/29 23:04:21;;;;;;;9.87;7.23;;;;;;;;;;4973495;28;20806;-79
2021/10/29 23:06:48;;;;;;;11.47;8.13;;;;;;;;;;4956860;28;20462;-79
2021/10/29 23:09:17;;;;;;;9.10;7.27;;;;;;;;;;4958582;28;20484;-80
2021/10/29 23:11:44;;;;;;;8.13;7.13;;;;;;;;;;4958876;28;20943;-80
2021/10/29 23:14:11;;;;;;;10.30;7.27;;;;;;;;;;4951757;28;20453;-80
2021/10/29 23:16:38;;;;;;;9.20;6.30;;;;;;;;;;4963364;28;20475;-78
2021/10/29 23:19:06;;;;;;;13.43;7.97;;;;;;;;;;4961247;28;20543;-78
2021/10/29 23:21:33;;;;;;;8.37;6.90;;;;;;;;;;4953959;28;20463;-79
2021/10/29 23:24:00;;;;;;;10.03;7.53;;;;;;;;;;4964742;28;20475;-79
2021/10/29 23:26:28;;;;;;;10.20;7.80;;;;;;;;;;4974155;28;20810;-80
2021/10/29 23:28:56;;;;;;;9.93;7.33;;;;;;;;;;4974535;28;20462;-81
2021/10/29 23:31:23;;;;;;;9.40;6.77;;;;;;;;;;4961059;28;20468;-79
2021/10/29 23:33:50;;;;;;;11.17;7.33;;;;;;;;;;4958848;28;20541;-79
2021/10/29 23:36:17;;;;;;;9.07;6.83;;;;;;;;;;4952436;29;20442;-80
2021/10/29 23:38:45;;;;;;;9.10;7.30;;;;;;;;;;4952323;28;20508;-80
2021/10/29 23:41:13;;;;;;;7.70;6.90;;;;;;;;;;4957712;28;20463;-81
2021/10/29 23:43:45;;;;;;;9.00;7.47;;;;;;;;;;4971138;28;20465;-80
2021/10/29 23:46:12;;;;;;;9.80;7.30;;;;;;;;;;4954753;29;20434;-79
2021/10/29 23:48:39;;;;;;;9.37;7.03;;;;;;;;;;4962496;28;20454;-80
2021/10/29 23:51:07;;;;;;;11.20;7.40;;;;;;;;;;4957266;28;20844;-78
2021/10/29 23:54:00;;;;;;;11.80;7.70;;;;;;;;;;4968538;28;20479;-80
2021/10/29 23:56:34;;;;;;;9.93;7.87;;;;;;;;;;4976190;28;20447;-79
2021/10/29 23:59:02;;;;;;;10.57;7.83;;;;;;;;;;4963241;28;20492;-81
